Time;durP1;ratioP1;P1;durP2;ratioP2;P2;SDS_P1;SDS_P2;PMS_P1;PMS_P2;Temp;Humidity;BMP_temperature;BMP_pressure;BME280_temperature;BME280_humidity;BME280_pressure;Samples;Min_cycle;Max_cycle;Signal;HPM_P1;HPM_P2
2023/01/29 00:01:44;;;;;;;9.35;5.28;;;;;;;-0.06;70.14;99695.03;5067864;28;20044;-45
2023/01/29 00:04:10;;;;;;;9.75;5.82;;;;;;;-0.06;70.42;99700.16;5076718;28;20032;-47
2023/01/29 00:06:36;;;;;;;11.63;6.40;;;;;;;-0.08;70.42;99699.25;5085913;28;20048;-50
2023/01/29 00:09:02;;;;;;;13.55;7.07;;;;;;;-0.24;70.77;99663.34;5088382;28;20130;-47
2023/01/29 00:11:28;;;;;;;13.85;6.85;;;;;;;-0.08;70.65;99701.81;5083858;28;20577;-46
2023/01/29 00:13:53;;;;;;;14.10;7.65;;;;;;;-0.26;70.53;99677.81;5086189;28;20047;-45
2023/01/29 00:16:19;;;;;;;14.30;7.40;;;;;;;-0.16;70.67;99700.88;5067607;28;20040;-45
2023/01/29 00:18:45;;;;;;;12.20;6.28;;;;;;;-0.17;70.76;99694.09;5052726;28;20046;-50
2023/01/29 00:21:16;;;;;;;11.32;5.35;;;;;;;-0.20;70.21;99688.94;5068048;28;20055;-46
2023/01/29 00:23:42;;;;;;;11.48;5.28;;;;;;;-0.20;70.51;99688.94;5066401;28;20048;-46
2023/01/29 00:26:08;;;;;;;8.98;4.68;;;;;;;-0.21;70.44;99688.94;5033765;28;20048;-45
2023/01/29 00:28:35;;;;;;;7.75;3.75;;;;;;;-0.22;69.82;99687.22;5078919;28;20037;-47
2023/01/29 00:31:15;;;;;;;6.82;3.92;;;;;;;-0.23;69.46;99685.50;5033564;28;20127;-47
2023/01/29 00:33:42;;;;;;;7.30;3.80;;;;;;;-0.25;69.57;99679.50;5071902;28;20041;-45
2023/01/29 00:36:11;;;;;;;6.60;3.30;;;;;;;-0.60;69.23;99620.47;5056815;28;20062;-46
2023/01/29 00:38:37;;;;;;;6.70;3.50;;;;;;;-0.26;68.96;99685.50;5069427;28;20524;-45
2023/01/29 00:46:39;;;;;;;5.47;2.55;;;;;;;-0.69;68.16;99638.25;5089650;28;20496;-46
2023/01/29 00:49:06;;;;;;;6.22;3.08;;;;;;;-0.51;67.56;99658.84;5085470;28;20051;-44
2023/01/29 00:51:32;;;;;;;4.88;2.28;;;;;;;-0.60;67.31;99658.75;5085157;28;20396;-49
2023/01/29 00:53:58;;;;;;;4.57;2.40;;;;;;;-0.73;67.58;99631.41;5045764;28;20036;-45
2023/01/29 00:56:25;;;;;;;4.95;2.80;;;;;;;-0.56;67.13;99657.94;5071384;28;20424;-46
2023/01/29 00:58:50;;;;;;;6.07;2.67;;;;;;;-0.53;67.05;99663.97;5072259;28;20049;-45
2023/01/29 01:03:04;;;;;;;4.07;2.50;;;;;;;-0.56;66.98;99653.69;5069848;28;20043;-46
2023/01/29 01:04:03;;;;;;;4.63;2.33;;;;;;;-0.58;67.03;99657.09;5070769;28;20562;-48
2023/01/29 01:06:28;;;;;;;5.43;2.78;;;;;;;-0.59;67.04;99655.38;5088555;28;20036;-47
2023/01/29 01:11:39;;;;;;;4.25;2.42;;;;;;;-0.58;66.63;99652.84;5069573;28;20047;-47
2023/01/29 01:14:05;;;;;;;4.93;2.30;;;;;;;-0.73;66.63;99621.22;5072312;28;20040;-48
2023/01/29 01:16:31;;;;;;;5.97;2.83;;;;;;;-0.66;66.72;99645.94;5075450;28;20131;-46
2023/01/29 01:18:56;;;;;;;3.55;2.15;;;;;;;-0.77;66.58;99620.31;5070764;28;20041;-47
2023/01/29 01:21:22;;;;;;;3.95;2.33;;;;;;;-0.76;66.45;99637.34;5073932;28;20056;-46
2023/01/29 01:23:50;;;;;;;4.20;2.20;;;;;;;-0.73;66.48;99667.97;5070971;28;20052;-44
2023/01/29 01:26:17;;;;;;;5.57;2.13;;;;;;;-0.81;66.50;99653.44;5080774;28;20040;-45
2023/01/29 01:28:43;;;;;;;4.55;2.42;;;;;;;-0.71;66.37;99651.00;5089978;28;20040;-47
2023/01/29 01:31:11;;;;;;;7.53;1.90;;;;;;;-0.65;66.35;99652.75;5089395;28;20050;-49
2023/01/29 01:33:37;;;;;;;4.97;2.15;;;;;;;-0.65;66.25;99652.75;5083923;28;20161;-47
2023/01/29 01:36:04;;;;;;;4.85;2.10;;;;;;;-0.66;66.16;99657.00;5071343;28;20445;-46
2023/01/29 01:38:30;;;;;;;4.18;1.77;;;;;;;-0.68;66.71;99655.28;5068911;28;20040;-45
2023/01/29 01:40:55;;;;;;;3.42;2.00;;;;;;;-0.74;66.24;99625.47;5052273;28;20071;-47
2023/01/29 01:43:21;;;;;;;4.38;2.15;;;;;;;-0.63;66.49;99648.53;5078923;28;20534;-46
2023/01/29 01:45:48;;;;;;;3.72;1.63;;;;;;;-0.65;65.81;99651.06;5079624;28;20044;-46
2023/01/29 01:48:18;;;;;;;2.22;1.30;;;;;;;-0.61;66.07;99644.28;5072296;28;20040;-46
2023/01/29 01:50:46;;;;;;;3.95;1.45;;;;;;;-0.64;66.12;99637.47;5079258;28;20043;-44
2023/01/29 01:53:15;;;;;;;3.15;1.55;;;;;;;-0.83;66.03;99601.50;5069557;28;20060;-45
2023/01/29 01:55:48;;;;;;;2.58;1.40;;;;;;;-0.76;65.97;99595.63;5072289;28;20075;-48
2023/01/29 01:58:23;;;;;;;2.90;1.35;;;;;;;-0.59;66.01;99625.59;5063069;28;20036;-48
2023/01/29 02:00:49;;;;;;;3.88;1.63;;;;;;;-0.55;65.55;99626.47;5072162;28;20082;-46
2023/01/29 02:11:36;;;;;;;4.05;2.05;;;;;;;-0.74;65.67;99616.94;5072332;28;20172;-44
2023/01/29 02:14:03;;;;;;;4.10;1.90;;;;;;;-0.86;65.83;99605.78;5068424;28;20539;-45
2023/01/29 02:16:29;;;;;;;2.70;1.45;;;;;;;-0.82;65.89;99609.19;5081720;28;20115;-45
2023/01/29 02:18:55;;;;;;;3.83;1.70;;;;;;;-0.85;65.79;99598.97;5071695;28;20041;-44
2023/01/29 02:21:43;;;;;;;3.42;1.60;;;;;;;-0.82;66.16;99596.44;5078681;28;20039;-48
2023/01/29 02:24:24;;;;;;;3.40;1.70;;;;;;;-0.78;65.84;99592.22;5085957;28;20063;-45
2023/01/29 02:26:59;;;;;;;3.13;1.42;;;;;;;-0.89;65.54;99592.13;5078585;28;20408;-47
2023/01/29 02:29:42;;;;;;;2.78;1.50;;;;;;;-0.94;65.99;99584.41;5101267;28;20450;-47
2023/01/29 02:32:15;;;;;;;4.38;1.48;;;;;;;-1.01;65.92;99581.78;5080314;28;20040;-47
2023/01/29 02:37:53;;;;;;;2.42;1.40;;;;;;;-1.13;66.48;99581.66;5087596;28;20047;-46
2023/01/29 02:40:44;;;;;;;3.03;1.58;;;;;;;-1.13;66.73;99574.00;5058698;28;20060;-46
2023/01/29 02:43:45;;;;;;;2.47;1.38;;;;;;;-1.29;66.48;99539.84;5074719;28;20571;-45
2023/01/29 02:46:34;;;;;;;2.60;1.58;;;;;;;-1.29;66.73;99570.44;5068294;28;20093;-47
2023/01/29 02:49:20;;;;;;;5.35;1.80;;;;;;;-1.38;67.22;99566.09;5071343;28;20031;-45
2023/01/29 02:51:55;;;;;;;3.80;1.30;;;;;;;-1.46;66.91;99554.09;5044644;28;20135;-43
2023/01/29 02:54:39;;;;;;;3.30;1.55;;;;;;;-1.77;67.67;99535.88;5051010;28;20151;-42
2023/01/29 02:57:19;;;;;;;3.88;1.80;;;;;;;-1.67;67.98;99544.50;5053107;28;20078;-45
2023/01/29 02:59:53;;;;;;;4.18;1.90;;;;;;;-1.64;68.28;99544.53;5057286;28;20039;-52
2023/01/29 03:02:34;;;;;;;3.60;1.77;;;;;;;-1.66;68.43;99536.00;5069625;28;20089;-49
2023/01/29 03:05:06;;;;;;;2.13;1.10;;;;;;;-1.70;68.51;99536.81;5071045;28;20048;-46
2023/01/29 03:07:43;;;;;;;6.53;2.40;;;;;;;-1.69;68.90;99540.22;5056392;28;20036;-45
2023/01/29 03:10:22;;;;;;;3.95;2.10;;;;;;;-1.68;68.92;99542.81;5067580;28;20420;-44
2023/01/29 03:12:54;;;;;;;4.38;2.03;;;;;;;-1.57;68.69;99542.94;5051438;28;20113;-46
2023/01/29 03:15:27;;;;;;;3.60;2.03;;;;;;;-1.78;68.64;99508.69;5086740;28;20043;-49
2023/01/29 03:18:15;;;;;;;3.38;1.13;;;;;;;-1.71;69.03;99530.00;5086617;28;20038;-43
2023/01/29 03:20:47;;;;;;;2.70;1.60;;;;;;;-1.79;69.25;99529.94;5088711;28;20054;-45
2023/01/29 03:34:37;;;;;;;2.65;1.60;;;;;;;-1.79;69.83;99495.94;5086337;28;20372;-46
2023/01/29 03:37:09;;;;;;;5.38;1.80;;;;;;;-1.88;69.40;99481.38;5066302;28;20496;-45
2023/01/29 03:39:36;;;;;;;2.45;1.27;;;;;;;-1.86;69.31;99476.31;5066838;28;20052;-46
2023/01/29 03:42:50;;;;;;;2.55;1.42;;;;;;;-1.84;69.74;99479.75;5034203;28;20044;-44
2023/01/29 03:45:35;;;;;;;3.72;1.42;;;;;;;-1.75;69.48;99473.06;5035673;28;20556;-45
2023/01/29 03:48:04;;;;;;;3.58;1.85;;;;;;;-1.71;69.42;99471.41;5067266;28;20432;-44
2023/01/29 03:51:01;;;;;;;4.25;1.60;;;;;;;-1.63;69.47;99466.41;5078221;28;20463;-48
2023/01/29 03:53:30;;;;;;;2.88;1.50;;;;;;;-1.70;69.21;99457.81;5071066;28;20036;-48
2023/01/29 03:56:16;;;;;;;2.22;1.33;;;;;;;-1.71;69.30;99464.63;5067242;28;20044;-45
2023/01/29 03:59:10;;;;;;;2.85;1.38;;;;;;;-1.71;69.52;99466.31;5063754;28;20396;-44
2023/01/29 04:02:03;;;;;;;3.55;1.73;;;;;;;-1.80;69.26;99456.88;5093897;28;20056;-45
2023/01/29 04:04:33;;;;;;;2.67;1.77;;;;;;;-1.81;69.27;99442.41;5067172;28;20076;-43
2023/01/29 04:07:07;;;;;;;3.85;1.35;;;;;;;-1.80;69.16;99438.19;5046934;28;20036;-47
2023/01/29 04:09:39;;;;;;;3.58;1.50;;;;;;;-1.81;69.41;99447.50;5086837;28;20055;-45
2023/01/29 04:12:11;;;;;;;3.83;1.80;;;;;;;-1.79;69.28;99443.31;5070833;28;20043;-47
2023/01/29 04:14:41;;;;;;;4.05;1.50;;;;;;;-1.73;69.30;99442.50;5053865;28;20047;-45
2023/01/29 04:17:21;;;;;;;3.90;1.88;;;;;;;-1.71;69.33;99438.28;5087285;28;20036;-44
2023/01/29 04:19:59;;;;;;;5.05;1.85;;;;;;;-1.79;69.23;99437.34;5053674;28;20055;-45
2023/01/29 04:22:31;;;;;;;4.70;1.88;;;;;;;-1.94;69.47;99419.34;5082403;28;20040;-44
2023/01/29 04:25:01;;;;;;;3.05;1.55;;;;;;;-1.80;69.50;99438.19;5057162;28;20043;-45
2023/01/29 04:27:54;;;;;;;3.00;1.50;;;;;;;-1.70;69.33;99445.09;5090626;28;20074;-48
2023/01/29 04:30:39;;;;;;;2.22;1.40;;;;;;;-1.63;69.43;99443.47;5086106;28;20508;-47
2023/01/29 04:33:27;;;;;;;3.60;1.48;;;;;;;-1.67;69.13;99436.63;5083382;28;20063;-46
2023/01/29 04:36:20;;;;;;;1.85;0.98;;;;;;;-1.68;69.18;99429.81;5071473;28;20044;-48
2023/01/29 04:38:52;;;;;;;2.05;1.20;;;;;;;-1.78;69.12;99427.16;5069947;28;20089;-43
2023/01/29 04:41:31;;;;;;;3.75;1.30;;;;;;;-1.82;69.08;99424.56;5059928;28;20433;-49
2023/01/29 04:44:10;;;;;;;2.95;1.23;;;;;;;-1.94;69.40;99398.97;5069195;28;20503;-52
2023/01/29 04:46:51;;;;;;;2.00;1.20;;;;;;;-1.73;69.11;99432.31;5069867;28;20424;-46
2023/01/29 04:49:17;;;;;;;3.47;1.80;;;;;;;-1.78;69.22;99428.88;5086980;28;20503;-46
2023/01/29 04:51:53;;;;;;;2.60;1.40;;;;;;;-1.83;69.27;99425.38;5089995;28;20063;-46
2023/01/29 04:54:25;;;;;;;2.25;1.20;;;;;;;-1.78;69.44;99426.31;5085055;28;20151;-45
2023/01/29 04:57:15;;;;;;;3.60;1.50;;;;;;;-1.73;69.89;99417.03;5090115;28;20126;-45
2023/01/29 04:59:45;;;;;;;3.47;1.42;;;;;;;-1.70;69.15;99417.06;5057737;28;20506;-46
2023/01/29 05:02:11;;;;;;;4.45;1.83;;;;;;;-1.81;69.14;99421.19;5075987;28;20062;-49
2023/01/29 05:04:39;;;;;;;3.85;2.20;;;;;;;-1.79;69.43;99420.38;5086678;28;20071;-46
2023/01/29 05:07:07;;;;;;;3.40;1.60;;;;;;;-1.80;69.49;99417.78;5066960;28;20101;-47
2023/01/29 05:09:34;;;;;;;4.03;1.60;;;;;;;-1.77;69.48;99413.56;5053796;28;20584;-46
2023/01/29 05:12:01;;;;;;;3.15;1.88;;;;;;;-1.82;69.52;99417.78;5070859;28;20743;-48
2023/01/29 05:14:29;;;;;;;5.00;2.42;;;;;;;-1.79;69.61;99415.28;5069961;28;20531;-45
2023/01/29 05:16:56;;;;;;;4.28;1.77;;;;;;;-1.67;69.67;99411.16;5069788;28;20599;-45
2023/01/29 05:19:22;;;;;;;5.43;2.17;;;;;;;-1.66;69.38;99403.50;5085579;28;20495;-44
2023/01/29 05:21:48;;;;;;;3.92;1.45;;;;;;;-1.61;69.21;99406.09;5057286;28;20094;-45
2023/01/29 05:24:20;;;;;;;4.13;1.92;;;;;;;-1.59;69.69;99407.81;5081644;28;20457;-48
2023/01/29 05:29:32;;;;;;;5.28;2.40;;;;;;;-1.46;69.15;99418.97;5069747;28;20045;-46
2023/01/29 05:31:58;;;;;;;4.93;2.10;;;;;;;-1.44;69.16;99418.16;5082104;28;20423;-45
2023/01/29 05:34:24;;;;;;;2.83;1.42;;;;;;;-1.45;68.85;99413.91;5087417;28;20035;-47
2023/01/29 05:36:50;;;;;;;3.97;1.80;;;;;;;-1.60;69.17;99410.34;5072848;28;20132;-45
2023/01/29 05:39:16;;;;;;;4.03;2.03;;;;;;;-1.64;69.38;99411.16;5087287;28;20461;-47
2023/01/29 05:41:42;;;;;;;4.70;2.60;;;;;;;-1.78;69.40;99388.09;5075711;28;20086;-48
2023/01/29 05:44:09;;;;;;;4.72;2.42;;;;;;;-1.64;69.38;99421.34;5085297;28;20122;-47
2023/01/29 05:46:35;;;;;;;3.28;1.83;;;;;;;-1.74;69.66;99397.47;5071825;28;20665;-48
2023/01/29 05:49:01;;;;;;;4.13;2.33;;;;;;;-1.62;69.50;99412.88;5075230;28;20043;-46
2023/01/29 05:51:27;;;;;;;3.92;2.00;;;;;;;-1.59;69.45;99412.91;5079164;28;20047;-49
2023/01/29 05:53:53;;;;;;;6.53;2.55;;;;;;;-1.55;69.60;99413.78;5063600;28;20044;-46
2023/01/29 05:56:18;;;;;;;5.75;2.15;;;;;;;-1.61;69.44;99417.13;5069236;28;20523;-45
2023/01/29 05:58:44;;;;;;;4.15;2.08;;;;;;;-1.63;69.64;99417.97;5070958;28;20036;-47
2023/01/29 06:01:20;;;;;;;3.60;1.98;;;;;;;-1.65;69.77;99412.84;5083609;28;20572;-47
2023/01/29 06:03:46;;;;;;;4.80;2.13;;;;;;;-1.54;69.57;99412.97;5085612;28;20062;-45
2023/01/29 06:06:12;;;;;;;3.80;2.42;;;;;;;-1.53;69.56;99424.88;5068699;28;20036;-47
2023/01/29 06:08:38;;;;;;;9.68;1.80;;;;;;;-1.82;69.50;99363.41;5069467;28;20399;-47
2023/01/29 06:11:06;;;;;;;5.20;2.20;;;;;;;-1.58;69.63;99408.69;5086168;28;20040;-48
2023/01/29 06:13:33;;;;;;;4.07;2.03;;;;;;;-1.59;69.61;99412.06;5090339;28;20130;-46
2023/01/29 06:15:59;;;;;;;4.32;2.58;;;;;;;-1.66;69.70;99395.84;5071853;28;20570;-47
2023/01/29 06:18:24;;;;;;;5.50;2.33;;;;;;;-1.75;69.56;99383.03;5088923;28;20127;-46
2023/01/29 06:20:50;;;;;;;4.82;2.40;;;;;;;-1.94;69.84;99350.56;5087696;28;20035;-45
2023/01/29 06:23:16;;;;;;;3.33;2.15;;;;;;;-1.77;70.04;99388.09;5089279;28;20040;-46
2023/01/29 06:25:42;;;;;;;7.10;1.80;;;;;;;-1.66;69.80;99397.53;5071809;28;20048;-51
2023/01/29 06:28:08;;;;;;;5.30;1.98;;;;;;;-1.96;69.80;99349.69;5069827;28;20427;-49
2023/01/29 06:30:34;;;;;;;2.00;1.20;;;;;;;-1.67;69.88;99401.78;5071092;28;20044;-46
2023/01/29 06:33:02;;;;;;;4.05;1.95;;;;;;;-1.88;70.09;99360.81;5089180;28;20126;-47
2023/01/29 06:35:28;;;;;;;5.70;2.20;;;;;;;-1.66;70.23;99392.44;5089169;28;20040;-44
2023/01/29 06:37:55;;;;;;;9.65;2.67;;;;;;;-1.66;70.27;99387.34;5071434;28;20119;-46
2023/01/29 06:40:21;;;;;;;2.28;1.30;;;;;;;-1.58;69.95;99399.34;5058240;28;20158;-48
2023/01/29 06:42:47;;;;;;;5.45;1.45;;;;;;;-1.66;69.82;99390.75;5083738;28;20044;-47
2023/01/29 06:45:13;;;;;;;4.40;1.85;;;;;;;-1.81;69.84;99362.56;5068113;28;20039;-47
2023/01/29 06:47:39;;;;;;;5.22;2.03;;;;;;;-1.61;69.92;99380.59;5088191;28;20059;-47
2023/01/29 06:50:05;;;;;;;3.70;2.03;;;;;;;-1.67;69.48;99357.63;5080708;28;20040;-46
2023/01/29 06:52:31;;;;;;;3.10;1.98;;;;;;;-1.51;69.48;99356.91;5069718;28;20558;-45
2023/01/29 06:54:57;;;;;;;4.45;1.75;;;;;;;-1.52;68.91;99358.63;5089178;28;20040;-44
2023/01/29 06:57:23;;;;;;;3.38;1.75;;;;;;;-1.69;68.64;99326.19;5099936;28;20036;-45
2023/01/29 06:59:49;;;;;;;3.67;1.77;;;;;;;-1.48;68.46;99352.69;5079073;28;20153;-48
2023/01/29 07:02:15;;;;;;;2.40;1.65;;;;;;;-1.44;68.54;99351.03;5067946;28;20652;-49
2023/01/29 07:04:41;;;;;;;4.05;1.58;;;;;;;-1.42;68.27;99345.09;5087832;28;20226;-48
2023/01/29 07:07:12;;;;;;;3.50;1.50;;;;;;;-1.32;67.71;99346.03;5070716;28;20490;-46
2023/01/29 07:09:41;;;;;;;3.40;1.70;;;;;;;-1.24;67.68;99343.53;5075054;28;20050;-45
2023/01/29 07:12:10;;;;;;;;;;;;;;;-1.15;67.26;99341.88;5085403;28;20058;-44
2023/01/29 07:14:36;;;;;;;3.93;1.90;;;;;;;-1.12;67.11;99338.50;5073337;28;19930;-44
2023/01/29 07:17:02;;;;;;;3.00;1.80;;;;;;;-1.05;66.90;99347.94;5077495;28;20385;-45
2023/01/29 07:19:28;;;;;;;2.00;1.10;;;;;;;-1.08;66.40;99335.13;5053930;28;20519;-44
2023/01/29 07:21:54;;;;;;;1.30;1.00;;;;;;;-1.06;65.93;99341.97;5069964;28;20041;-44
2023/01/29 07:24:20;;;;;;;2.22;1.42;;;;;;;-1.21;65.51;99292.56;5076779;28;20127;-45
2023/01/29 07:26:46;;;;;;;1.67;1.08;;;;;;;-0.98;65.28;99331.78;5072015;28;20127;-46
2023/01/29 07:29:12;;;;;;;2.63;1.48;;;;;;;-0.97;64.63;99329.25;5081742;28;20089;-46
2023/01/29 07:31:38;;;;;;;1.55;1.13;;;;;;;-1.04;64.59;99296.91;5084076;28;20541;-45
2023/01/29 07:34:04;;;;;;;1.20;0.68;;;;;;;-0.93;63.95;99325.88;5069921;28;20040;-47
2023/01/29 07:36:29;;;;;;;4.10;1.00;;;;;;;-1.14;64.07;99277.28;5085565;28;20033;-45
2023/01/29 07:38:56;;;;;;;2.95;1.27;;;;;;;-0.73;63.78;99328.53;5071654;28;20062;-45
2023/01/29 07:41:23;;;;;;;1.77;1.15;;;;;;;-0.69;63.41;99331.97;5077446;28;21704;-44
2023/01/29 07:43:49;;;;;;;2.92;1.50;;;;;;;-0.65;62.96;99323.47;5077472;28;20189;-46
2023/01/29 07:46:15;;;;;;;3.30;1.27;;;;;;;-0.66;62.81;99316.66;5071378;28;20842;-45
2023/01/29 07:48:41;;;;;;;2.55;1.33;;;;;;;-0.63;62.82;99314.97;5082173;28;20050;-43
2023/01/29 07:51:07;;;;;;;3.38;1.40;;;;;;;-0.55;62.59;99308.19;5083836;28;20039;-44
2023/01/29 07:53:32;;;;;;;2.35;1.20;;;;;;;-0.57;62.42;99314.13;5076350;28;20060;-45
2023/01/29 07:55:59;;;;;;;8.07;1.58;;;;;;;-0.65;62.53;99313.25;5072067;28;20560;-48
2023/01/29 07:58:24;;;;;;;1.73;1.20;;;;;;;-0.87;61.96;99285.09;5070226;28;20037;-44
2023/01/29 08:00:50;;;;;;;1.63;0.82;;;;;;;-0.63;62.53;99322.63;5082950;28;20070;-46
2023/01/29 08:03:18;;;;;;;2.38;1.20;;;;;;;-0.67;62.14;99315.78;5081194;28;20040;-46
2023/01/29 08:05:44;;;;;;;2.75;1.10;;;;;;;-0.68;62.37;99300.50;5080733;28;20038;-43
2023/01/29 08:08:11;;;;;;;2.50;1.10;;;;;;;-0.65;62.15;99308.16;5080759;28;20047;-45
2023/01/29 08:10:37;;;;;;;1.60;0.98;;;;;;;-0.69;62.45;99293.69;5085524;28;20044;-42
2023/01/29 08:13:04;;;;;;;2.35;1.27;;;;;;;-0.60;62.18;99296.25;5078419;28;20047;-43
2023/01/29 08:15:30;;;;;;;2.53;1.27;;;;;;;-0.62;62.20;99303.06;5075625;28;20082;-43
2023/01/29 08:17:56;;;;;;;3.67;1.45;;;;;;;-0.61;62.05;99302.22;5079299;28;20045;-44
2023/01/29 08:20:22;;;;;;;2.75;1.45;;;;;;;-0.64;62.26;99302.22;5077685;28;20131;-44
2023/01/29 08:22:48;;;;;;;2.17;1.05;;;;;;;-0.80;62.39;99269.81;5076268;28;20757;-43
2023/01/29 08:25:14;;;;;;;3.00;1.52;;;;;;;-0.59;62.29;99298.84;5070758;28;20138;-44
2023/01/29 08:27:41;;;;;;;1.92;1.10;;;;;;;-0.50;62.35;99301.41;5080504;28;20446;-43
2023/01/29 08:30:08;;;;;;;2.28;1.23;;;;;;;-0.52;62.07;99298.00;5066572;28;20153;-45
2023/01/29 08:32:34;;;;;;;2.80;1.52;;;;;;;-0.74;62.17;99268.16;5078483;28;20052;-46
2023/01/29 08:35:00;;;;;;;1.90;1.00;;;;;;;-0.84;62.40;99275.75;5083731;28;20040;-45
2023/01/29 08:37:26;;;;;;;2.65;1.45;;;;;;;-0.67;62.69;99297.94;5084714;28;20074;-44
2023/01/29 08:39:52;;;;;;;2.13;1.33;;;;;;;-0.58;62.65;99299.69;5081499;28;20215;-42
2023/01/29 08:42:18;;;;;;;2.83;1.30;;;;;;;-0.53;62.40;99303.13;5075795;28;20066;-44
2023/01/29 08:44:45;;;;;;;3.10;1.70;;;;;;;-0.54;62.51;99294.59;5064540;28;20040;-47
2023/01/29 08:47:10;;;;;;;2.58;1.40;;;;;;;-0.43;62.35;99294.63;5079533;28;20528;-46
2023/01/29 08:49:36;;;;;;;4.57;1.60;;;;;;;-0.39;62.44;99296.34;5079777;28;20496;-50
2023/01/29 08:52:02;;;;;;;1.88;0.85;;;;;;;-0.55;62.22;99272.47;5075274;28;20039;-46
2023/01/29 08:54:28;;;;;;;3.90;1.65;;;;;;;-0.41;62.54;99290.38;5080531;28;20546;-45
2023/01/29 08:56:54;;;;;;;2.70;1.60;;;;;;;-0.31;62.53;99296.34;5070596;28;20065;-45
2023/01/29 08:59:21;;;;;;;3.22;1.30;;;;;;;-0.56;62.28;99267.34;5084976;28;20040;-44
2023/01/29 09:01:47;;;;;;;2.13;1.20;;;;;;;-0.60;62.41;99283.50;5081036;28;20047;-47
2023/01/29 09:04:13;;;;;;;2.33;1.30;;;;;;;-0.54;62.13;99297.16;5070584;28;20033;-50
2023/01/29 09:06:39;;;;;;;3.35;1.30;;;;;;;-0.58;62.18;99284.38;5060726;28;20048;-49
2023/01/29 09:09:05;;;;;;;3.40;1.67;;;;;;;-0.56;62.13;99280.09;5078965;28;20036;-49
2023/01/29 09:11:30;;;;;;;2.75;1.73;;;;;;;-0.50;62.80;99275.88;5080548;28;20108;-51
2023/01/29 09:13:56;;;;;;;3.10;1.70;;;;;;;-0.71;62.63;99245.19;5082651;28;20066;-49
2023/01/29 09:16:22;;;;;;;3.00;1.50;;;;;;;-0.66;62.12;99263.91;5083063;28;20568;-50
2023/01/29 09:18:48;;;;;;;2.58;1.65;;;;;;;-0.69;62.02;99268.16;5076721;28;20562;-50
2023/01/29 09:21:14;;;;;;;0.90;0.70;;;;;;;-0.64;62.31;99280.09;5074616;28;20702;-49
2023/01/29 09:23:40;;;;;;;3.38;1.70;;;;;;;-0.61;62.18;99266.47;5078368;28;20130;-51
2023/01/29 09:26:07;;;;;;;5.45;1.50;;;;;;;-0.49;62.09;99264.81;5073707;28;20047;-48
2023/01/29 09:28:32;;;;;;;4.22;2.13;;;;;;;-0.35;62.13;99264.00;5074652;28;20041;-50
2023/01/29 09:31:02;;;;;;;4.47;2.10;;;;;;;-0.41;62.11;99269.94;5071598;28;20512;-49
2023/01/29 09:33:28;;;;;;;2.85;1.30;;;;;;;-0.42;62.01;99270.81;5079321;28;20047;-50
2023/01/29 09:35:54;;;;;;;3.13;1.27;;;;;;;-0.48;61.70;99255.47;5080572;28;20037;-47
2023/01/29 09:38:20;;;;;;;4.05;1.48;;;;;;;-0.47;61.81;99257.16;5075740;28;20082;-47
2023/01/29 09:41:04;;;;;;;5.25;1.75;;;;;;;-0.46;62.12;99269.06;5013552;28;1318488;-45
2023/01/29 09:43:42;;;;;;;1.67;0.88;;;;;;;-0.52;62.00;99262.25;5079380;28;20036;-49
2023/01/29 09:46:41;;;;;;;4.13;1.50;;;;;;;-0.55;62.00;99256.28;5068391;28;20043;-48
2023/01/29 09:49:43;;;;;;;2.90;1.60;;;;;;;-0.50;62.33;99252.91;5074420;28;20040;-46
2023/01/29 09:52:24;;;;;;;3.67;1.50;;;;;;;-0.43;62.10;99246.13;5006973;28;20500;-48
2023/01/29 09:55:29;;;;;;;4.00;1.50;;;;;;;-0.43;62.40;99244.44;5081546;28;20032;-48
2023/01/29 09:58:01;;;;;;;2.90;1.10;;;;;;;-0.45;62.28;99227.38;5076463;28;20542;-50
2023/01/29 10:00:33;;;;;;;4.47;1.83;;;;;;;-0.51;62.54;99220.56;5082663;28;20047;-45
2023/01/29 10:03:23;;;;;;;3.78;1.63;;;;;;;-0.57;62.53;99238.41;5075763;28;20039;-43
2023/01/29 10:06:16;;;;;;;2.95;1.65;;;;;;;-0.59;62.71;99227.34;5082412;28;20145;-45
2023/01/29 10:09:03;;;;;;;3.97;1.83;;;;;;;-0.42;62.81;99214.63;5070242;28;20071;-44
2023/01/29 10:11:44;;;;;;;1.88;1.25;;;;;;;-0.40;62.71;99195.03;5073365;28;20036;-43
2023/01/29 10:14:36;;;;;;;3.95;1.80;;;;;;;-0.33;62.81;99196.78;5069975;28;20040;-45
2023/01/29 10:17:25;;;;;;;4.75;1.90;;;;;;;-0.31;62.95;99187.38;5077885;28;20076;-47
2023/01/29 10:20:05;;;;;;;4.17;2.23;;;;;;;-0.28;62.78;99182.31;5063662;28;20130;-43
2023/01/29 10:22:34;;;;;;;4.43;1.70;;;;;;;-0.16;62.71;99164.41;5080231;28;20325;-45
2023/01/29 10:25:27;;;;;;;;;;;;;;;-0.09;62.12;99171.22;5078103;28;20037;-44
2023/01/29 10:27:56;;;;;;;3.13;1.15;;;;;;;-0.03;62.18;99157.59;5080386;28;20019;-45
2023/01/29 10:30:32;;;;;;;3.67;2.08;;;;;;;0.03;61.95;99161.88;5050726;28;20059;-45
2023/01/29 10:33:05;;;;;;;3.33;1.63;;;;;;;0.08;62.41;99152.50;5043376;28;20068;-45
2023/01/29 10:35:40;;;;;;;2.28;1.25;;;;;;;0.13;62.08;99143.97;5070167;28;20161;-47
2023/01/29 10:38:23;;;;;;;2.03;1.10;;;;;;;0.09;61.85;99123.53;5074366;28;20470;-44
2023/01/29 10:41:09;;;;;;;4.20;1.27;;;;;;;0.00;61.56;99092.00;5070736;28;20481;-44
2023/01/29 10:44:19;;;;;;;4.40;1.65;;;;;;;0.36;61.57;99149.91;5068532;28;20040;-43
2023/01/29 10:47:06;;;;;;;3.20;1.42;;;;;;;0.38;60.91;99132.84;5047091;28;20519;-45
2023/01/29 10:49:51;;;;;;;3.80;1.83;;;;;;;0.35;60.69;99137.13;5073237;28;20044;-44
2023/01/29 10:52:48;;;;;;;4.45;1.85;;;;;;;0.58;60.94;99137.88;5072076;28;20089;-46
2023/01/29 10:55:52;;;;;;;3.13;1.45;;;;;;;0.54;60.21;99140.47;5073771;28;20039;-45
2023/01/29 10:58:40;;;;;;;2.30;1.08;;;;;;;0.52;60.26;99127.69;5050559;28;20094;-45
2023/01/29 11:01:10;;;;;;;1.80;1.10;;;;;;;0.34;60.59;99125.19;5074012;28;20533;-46
2023/01/29 11:03:36;;;;;;;;;;;;;;;0.30;60.57;99121.78;5079732;28;20582;-44
2023/01/29 11:06:22;;;;;;;2.10;0.95;;;;;;;0.26;60.79;99101.34;5080436;28;20014;-46
2023/01/29 11:08:53;;;;;;;1.88;1.10;;;;;;;0.31;60.47;99110.72;5083654;28;20058;-44
2023/01/29 11:11:32;;;;;;;4.45;1.98;;;;;;;0.36;60.22;99108.16;5083203;28;20101;-45
2023/01/29 11:14:05;;;;;;;4.13;1.58;;;;;;;0.48;60.11;99102.97;5085621;28;20145;-45
2023/01/29 11:16:39;;;;;;;3.05;1.13;;;;;;;0.49;60.35;99104.69;5073489;28;20047;-46
2023/01/29 11:19:05;;;;;;;4.53;2.15;;;;;;;0.60;60.45;99099.53;5080441;28;20541;-45
2023/01/29 11:21:31;;;;;;;3.45;1.88;;;;;;;0.46;59.84;99062.94;5060120;28;20048;-43
2023/01/29 11:24:23;;;;;;;3.90;2.05;;;;;;;0.91;59.59;99102.78;5074071;28;20032;-43
2023/01/29 11:26:51;;;;;;;4.18;1.75;;;;;;;0.87;59.31;99089.19;5072451;28;20589;-44
2023/01/29 11:29:37;;;;;;;4.57;2.28;;;;;;;0.94;59.50;99090.84;5077720;28;20041;-46
2023/01/29 11:32:05;;;;;;;2.90;1.35;;;;;;;0.81;59.41;99091.75;5066680;28;20051;-47
2023/01/29 11:34:31;;;;;;;3.05;1.83;;;;;;;0.91;59.49;99085.72;5077238;28;20419;-45
2023/01/29 11:37:14;;;;;;;2.03;0.98;;;;;;;0.70;58.83;99088.41;5076894;28;20040;-44
2023/01/29 11:39:45;;;;;;;3.45;1.42;;;;;;;0.57;59.37;99092.72;5078054;28;20048;-43
2023/01/29 11:42:19;;;;;;;5.72;2.03;;;;;;;0.43;59.82;99077.41;5082205;28;20086;-43
2023/01/29 11:44:45;;;;;;;3.40;1.65;;;;;;;0.45;60.11;99079.97;5075180;28;20045;-47
2023/01/29 11:47:28;;;;;;;3.65;1.83;;;;;;;0.41;60.42;99088.53;5074476;28;20063;-45
2023/01/29 11:49:59;;;;;;;1.85;1.10;;;;;;;0.14;59.83;99058.78;5072513;28;20131;-44
2023/01/29 11:52:33;;;;;;;2.60;1.50;;;;;;;0.15;60.80;99098.81;5079681;28;20127;-43
2023/01/29 11:55:01;;;;;;;2.50;1.60;;;;;;;0.09;60.73;99069.88;5069858;28;20051;-45
2023/01/29 11:57:37;;;;;;;2.13;1.33;;;;;;;0.14;60.67;99075.81;5072538;28;20067;-44
2023/01/29 12:00:27;;;;;;;4.00;1.83;;;;;;;0.11;61.47;99074.09;5097893;28;20040;-44
2023/01/29 12:02:55;;;;;;;4.75;1.98;;;;;;;-0.02;61.39;99034.97;5059754;28;20105;-44
2023/01/29 12:05:23;;;;;;;4.20;1.75;;;;;;;0.10;61.18;99030.69;5072704;28;20079;-44
2023/01/29 12:07:51;;;;;;;1.67;1.17;;;;;;;0.27;61.21;99070.66;5073096;28;20043;-45
2023/01/29 12:10:38;;;;;;;2.88;1.85;;;;;;;0.14;61.49;99066.44;5079349;28;20044;-48
2023/01/29 12:13:18;;;;;;;2.33;1.60;;;;;;;0.03;62.06;99072.44;5085360;28;20044;-47
2023/01/29 12:15:45;;;;;;;3.67;2.00;;;;;;;0.00;62.20;99068.19;5078548;28;20036;-45
2023/01/29 12:18:40;;;;;;;3.33;1.75;;;;;;;0.07;62.41;99061.34;5079604;28;20078;-44
2023/01/29 12:21:45;;;;;;;5.38;2.72;;;;;;;0.14;62.48;99061.34;5068848;28;20067;-42
2023/01/29 12:24:47;;;;;;;3.58;1.90;;;;;;;0.34;61.98;99067.22;5082337;28;20225;-44
2023/01/29 12:27:40;;;;;;;5.45;2.15;;;;;;;0.04;62.05;99011.13;5066629;28;20098;-44
2023/01/29 12:30:12;;;;;;;4.28;2.08;;;;;;;0.09;62.71;99034.09;5074955;28;20127;-44
2023/01/29 12:32:48;;;;;;;3.85;1.90;;;;;;;0.22;62.12;99066.41;5075178;28;20044;-45